アスタナ の空港の天気 - METARとTAF

アスタナ国際空港 ( UACC / TSE ) - カザフスタン アスタナ
飛行場実況気象(Metar)
観測時間10/23 19:00 QYZT (10/23 13:00 UTC)
風向・風速南南東 4m/s
視程10km以上
天気現象
なし
気温7℃
湿度81%
気圧1010hPa
METARUACC 231300Z 15004MPS CAVOK 07/04 Q1010 R22/0///70 NOSIG RMK QFE726/0969
過去の天気等 Google飛行場航空写真 Wunderground天気予報

過去48時間のMETAR

飛行場予報(TAF)
発表時間: 10/23 17:00 QYZT (10/23 11:00 UTC)
予報対象時間: 23日18時 QYZT ~ 24日18時 QYZT
風向・風速南 6m/s
視程10km以上
全天の4割程度の雲 雲底高度 610m
全天の8割程度の雲 雲底高度 3,050m
23日21時 QYZT ~ 24日7時 QYZT に一時的に
風向・風速南 10m/s
視程5,000m
天気現象弱いしゅう雨
全天の4割程度の雲 雲底高度 210m
全天の8割程度の積乱雲 雲底高度 610m
24日7時 QYZT から
風向・風速南南西 11m/s
視程10km以上
全天の8割程度の積乱雲 雲底高度 300m
全天の8割程度の雲 雲底高度 3,050m
24日7時 QYZT ~ 24日12時 QYZT に一時的に
風向・風速西南西 11m/s 瞬間風速 16m/s
視程1,500m
天気現象しゅう雪雨
全天の4割程度の雲 雲底高度 150m
全天の8割程度の積乱雲 雲底高度 210m
24日12時 QYZT ~ 24日14時 QYZT に徐々に
風向・風速西 15m/s
24日12時 QYZT ~ 24日18時 QYZT に一時的に
風向・風速西 15m/s 瞬間風速 20m/s
視程2,000m
天気現象しゅう雪雨
全天の8割程度の積乱雲 雲底高度 210m
TAF UACC 231100Z 2312/2412 17006MPS 9999 SCT020 BKN100 TX08/2312Z TNM01/2412Z
TEMPO 2315/2401 19010MPS 5000 -SHRA SCT007 BKN020CB
FM240100 20011MPS 9999 BKN010CB BKN100
TEMPO 2401/2406 24011G16MPS 1500 SHSNRA SCT005 BKN007CB
BECMG 2406/2408 26015MPS
TEMPO 2406/2412 27015G20MPS 2000 SHSNRA BKN007CB